Time;durP1;ratioP1;P1;durP2;ratioP2;P2;SDS_P1;SDS_P2;PMS_P1;PMS_P2;Temp;Humidity;BMP_temperature;BMP_pressure;BME280_temperature;BME280_humidity;BME280_pressure;Samples;Min_cycle;Max_cycle;Signal;HPM_P1;HPM_P2
2023/04/26 00:00:11;;;;;;;0.20;0.20;;;;;;;13.02;100.00;99499.34;5038869;28;20059;-68
2023/04/26 00:02:37;;;;;;;0.20;0.20;;;;;;;12.98;100.00;99498.53;5038552;28;20044;-65
2023/04/26 00:05:03;;;;;;;0.20;0.20;;;;;;;13.01;100.00;99494.97;5038251;28;20456;-65
2023/04/26 00:07:34;;;;;;;0.20;0.20;;;;;;;13.04;100.00;99491.38;5039046;28;20472;-66
2023/04/26 00:10:00;;;;;;;0.20;0.20;;;;;;;12.97;100.00;99498.94;5056371;28;20052;-67
2023/04/26 00:12:28;;;;;;;0.20;0.20;;;;;;;12.93;100.00;99496.13;5038762;28;20471;-67
2023/04/26 00:14:59;;;;;;;0.22;0.22;;;;;;;12.91;100.00;99495.72;5038374;28;20029;-67
2023/04/26 00:17:27;;;;;;;0.20;0.20;;;;;;;12.87;100.00;99500.50;5038946;28;20052;-66
2023/04/26 00:19:52;;;;;;;0.20;0.20;;;;;;;12.89;100.00;99498.13;5038557;28;20029;-67
2023/04/26 00:22:20;;;;;;;0.20;0.20;;;;;;;12.87;100.00;99500.50;5038770;28;20036;-66
2023/04/26 00:24:46;;;;;;;0.20;0.20;;;;;;;12.90;100.00;99499.72;5038230;28;20048;-65
2023/04/26 00:27:14;;;;;;;0.20;0.20;;;;;;;12.90;100.00;99494.16;5038155;28;20025;-65
2023/04/26 00:29:42;;;;;;;0.20;0.20;;;;;;;12.83;100.00;99499.69;5038329;28;20546;-67
2023/04/26 00:32:07;;;;;;;0.25;0.25;;;;;;;12.81;100.00;99500.09;5038073;28;20025;-65
2023/04/26 00:34:38;;;;;;;0.20;0.20;;;;;;;12.84;100.00;99490.16;5038850;28;20029;-67
2023/04/26 00:37:04;;;;;;;0.20;0.20;;;;;;;12.86;100.00;99498.91;5037996;28;20060;-66
2023/04/26 00:39:35;;;;;;;0.20;0.20;;;;;;;12.76;100.00;99499.69;5037906;28;20052;-68
2023/04/26 00:42:01;;;;;;;0.20;0.20;;;;;;;12.53;100.00;99463.72;5037774;28;20032;-67
2023/04/26 00:44:28;;;;;;;0.20;0.20;;;;;;;12.71;100.00;99497.28;5038092;28;20033;-68
2023/04/26 00:46:56;;;;;;;0.20;0.20;;;;;;;12.69;100.00;99499.66;5038363;28;20025;-67
2023/04/26 00:49:27;;;;;;;0.20;0.20;;;;;;;12.66;100.00;99497.66;5038057;28;20029;-66
2023/04/26 00:51:55;;;;;;;0.20;0.20;;;;;;;12.64;100.00;99492.47;5037736;28;20148;-67
2023/04/26 00:54:20;;;;;;;0.20;0.20;;;;;;;12.63;100.00;99501.25;5037391;28;20083;-65
2023/04/26 00:56:46;;;;;;;0.20;0.20;;;;;;;12.65;100.00;99499.66;5037613;28;20040;-67
2023/04/26 00:59:14;;;;;;;0.20;0.20;;;;;;;12.67;100.00;99504.81;5037620;28;20064;-66
2023/04/26 01:01:42;;;;;;;0.20;0.20;;;;;;;12.73;100.00;99506.03;5038034;28;20033;-67
2023/04/26 01:04:08;;;;;;;0.30;0.30;;;;;;;12.71;100.00;99508.44;5037763;28;20031;-68
2023/04/26 01:06:34;;;;;;;0.20;0.20;;;;;;;12.72;100.00;99518.41;5037368;28;20393;-67
2023/04/26 01:09:11;;;;;;;0.20;0.20;;;;;;;12.76;100.00;99516.44;5037369;28;20471;-67
2023/04/26 01:11:37;;;;;;;0.20;0.20;;;;;;;12.75;100.00;99520.41;5037539;28;20037;-66
2023/04/26 01:14:04;;;;;;;0.20;0.20;;;;;;;12.81;100.00;99514.06;5037553;28;20116;-67
2023/04/26 01:16:30;;;;;;;0.20;0.20;;;;;;;12.78;100.00;99520.44;5036752;28;20032;-65
2023/04/26 01:18:55;;;;;;;0.20;0.20;;;;;;;12.98;100.00;99518.09;5037511;28;20391;-67
2023/04/26 01:21:24;;;;;;;0.20;0.20;;;;;;;12.91;100.00;99517.28;5037058;28;20086;-65
2023/04/26 01:23:50;;;;;;;0.20;0.20;;;;;;;12.82;100.00;99514.84;5037075;28;20175;-65
2023/04/26 01:26:17;;;;;;;0.20;0.20;;;;;;;12.81;100.00;99521.63;5037009;28;20498;-67
2023/04/26 01:28:48;;;;;;;0.20;0.20;;;;;;;12.67;100.00;99507.63;5037011;28;20028;-68
2023/04/26 01:31:14;;;;;;;0.20;0.20;;;;;;;12.88;100.00;99530.00;5036945;28;20060;-66
2023/04/26 01:33:39;;;;;;;0.20;0.20;;;;;;;12.85;100.00;99520.44;5036858;28;20111;-67
2023/04/26 01:36:11;;;;;;;0.20;0.20;;;;;;;12.90;100.00;99527.66;5037202;28;20036;-67
2023/04/26 01:38:43;;;;;;;0.20;0.20;;;;;;;12.89;100.00;99525.22;5036777;28;20472;-65
2023/04/26 01:41:11;;;;;;;0.20;0.20;;;;;;;12.90;100.00;99526.84;5037416;28;20477;-65
2023/04/26 01:43:39;;;;;;;0.20;0.20;;;;;;;12.90;100.00;99524.84;5036980;28;20472;-68
2023/04/26 01:46:04;;;;;;;0.20;0.20;;;;;;;12.87;100.00;99528.44;5036428;28;20048;-67
2023/04/26 01:48:30;;;;;;;0.20;0.20;;;;;;;12.91;100.00;99529.25;5036547;28;20119;-67
2023/04/26 01:50:55;;;;;;;0.20;0.20;;;;;;;12.95;100.00;99529.25;5036428;28;20044;-65
2023/04/26 01:53:26;;;;;;;0.20;0.20;;;;;;;12.90;100.00;99535.22;5036567;28;20037;-68
2023/04/26 01:55:54;;;;;;;0.20;0.20;;;;;;;12.97;100.00;99535.25;5037046;28;20044;-66
2023/04/26 01:58:19;;;;;;;0.20;0.20;;;;;;;12.95;100.00;99532.84;5036765;28;20555;-67
2023/04/26 02:00:47;;;;;;;0.20;0.20;;;;;;;12.87;100.00;99525.63;5037304;28;20115;-68
2023/04/26 02:03:15;;;;;;;0.20;0.20;;;;;;;12.92;100.00;99530.84;5037359;28;20025;-66
2023/04/26 02:05:43;;;;;;;0.20;0.20;;;;;;;12.88;100.00;99530.00;5036682;28;20037;-67
2023/04/26 02:08:09;;;;;;;0.20;0.20;;;;;;;12.89;100.00;99537.22;5036287;28;20021;-66
2023/04/26 02:10:37;;;;;;;0.20;0.20;;;;;;;12.85;100.00;99531.63;5036381;28;20036;-66
2023/04/26 02:13:02;;;;;;;0.20;0.20;;;;;;;12.91;100.00;99536.81;5036292;28;20040;-67
2023/04/26 02:15:28;;;;;;;0.20;0.20;;;;;;;12.97;100.00;99538.81;5036806;28;20033;-67
2023/04/26 02:17:56;;;;;;;0.20;0.20;;;;;;;12.97;100.00;99538.81;5037067;28;20029;-66
2023/04/26 02:20:22;;;;;;;0.20;0.20;;;;;;;13.04;100.00;99535.25;5036220;28;20028;-67
2023/04/26 02:22:50;;;;;;;0.20;0.20;;;;;;;13.08;100.00;99541.66;5036017;28;20025;-67
2023/04/26 02:25:15;;;;;;;0.20;0.20;;;;;;;13.18;100.00;99548.47;5036575;28;20031;-65
2023/04/26 02:27:43;;;;;;;0.20;0.20;;;;;;;13.20;100.00;99540.47;5036073;28;20025;-68
2023/04/26 02:30:09;;;;;;;0.20;0.20;;;;;;;13.18;100.00;99542.88;5036488;28;20392;-65
2023/04/26 02:32:37;;;;;;;0.20;0.20;;;;;;;13.16;100.00;99539.69;5035846;28;20025;-65
2023/04/26 02:35:04;;;;;;;0.20;0.20;;;;;;;13.14;100.00;99553.22;5035849;28;20125;-66
2023/04/26 02:37:29;;;;;;;0.20;0.20;;;;;;;13.15;100.00;99554.81;5035831;28;20029;-67
2023/04/26 02:39:55;;;;;;;0.20;0.20;;;;;;;13.10;100.00;99539.25;5036321;28;20033;-65
2023/04/26 02:42:23;;;;;;;0.20;0.20;;;;;;;13.14;100.00;99547.66;5035610;28;20123;-65
2023/04/26 02:44:51;;;;;;;0.20;0.20;;;;;;;13.14;100.00;99553.22;5035703;28;20029;-66
2023/04/26 02:47:19;;;;;;;0.20;0.20;;;;;;;12.93;100.00;99549.19;5036038;28;20061;-64
2023/04/26 02:49:47;;;;;;;0.20;0.20;;;;;;;12.90;100.00;99561.16;5035661;28;20028;-67
2023/04/26 02:52:13;;;;;;;0.20;0.20;;;;;;;12.74;100.00;99552.31;5035439;28;20107;-67
2023/04/26 02:54:44;;;;;;;0.20;0.20;;;;;;;12.66;100.00;99561.84;5053190;28;20060;-66
2023/04/26 02:57:12;;;;;;;0.20;0.20;;;;;;;12.54;97.72;99549.84;5035373;28;20029;-67
2023/04/26 02:59:38;;;;;;;0.20;0.20;;;;;;;12.46;89.65;99559.34;5036209;28;20444;-65
2023/04/26 03:02:06;;;;;;;0.20;0.20;;;;;;;12.44;88.58;99564.53;5035614;28;20082;-65
2023/04/26 03:04:35;;;;;;;0.20;0.20;;;;;;;12.47;88.40;99555.38;5036406;28;20094;-66
2023/04/26 03:07:09;;;;;;;0.20;0.20;;;;;;;12.43;88.40;99562.94;5035607;28;20033;-67
2023/04/26 03:09:37;;;;;;;0.20;0.20;;;;;;;12.43;86.09;99564.94;5035607;28;20032;-65
2023/04/26 03:12:06;;;;;;;0.20;0.20;;;;;;;12.46;87.87;99572.50;5035533;28;20116;-67
2023/04/26 03:14:32;;;;;;;0.20;0.20;;;;;;;12.52;88.03;99568.97;5035250;28;20033;-66
2023/04/26 03:16:59;;;;;;;0.20;0.20;;;;;;;12.53;87.91;99561.41;5035484;28;20025;-66
2023/04/26 03:19:32;;;;;;;0.20;0.20;;;;;;;12.66;86.93;99570.22;5035453;28;20021;-65
2023/04/26 03:22:00;;;;;;;;;;;;;;;12.65;86.74;99568.63;5035770;28;20036;-66
2023/04/26 03:24:28;;;;;;;0.20;0.20;;;;;;;12.80;87.04;99565.50;5035425;28;19963;-67
2023/04/26 03:26:59;;;;;;;0.20;0.20;;;;;;;12.70;88.31;99571.03;5035362;28;20182;-66
2023/04/26 03:29:28;;;;;;;0.20;0.20;;;;;;;12.76;88.49;99575.03;5035933;28;20097;-65
2023/04/26 03:31:53;;;;;;;0.20;0.20;;;;;;;12.56;88.33;99578.13;5035392;28;20025;-67
2023/04/26 03:34:21;;;;;;;0.20;0.20;;;;;;;12.53;88.93;99576.16;5035627;28;20040;-65
2023/04/26 03:36:50;;;;;;;0.20;0.20;;;;;;;12.49;89.36;99575.31;5035795;28;20383;-66
2023/04/26 03:39:15;;;;;;;0.20;0.20;;;;;;;12.48;88.81;99579.31;5035601;28;20157;-66
2023/04/26 03:41:46;;;;;;;0.20;0.20;;;;;;;12.50;88.36;99588.06;5039250;28;20032;-67
2023/04/26 03:44:14;;;;;;;0.20;0.20;;;;;;;12.46;87.88;99581.66;5039263;28;20037;-66
2023/04/26 03:46:42;;;;;;;0.20;0.20;;;;;;;12.47;87.50;99588.06;5038904;28;20483;-65
2023/04/26 03:49:07;;;;;;;0.20;0.20;;;;;;;12.36;87.77;99582.44;5038874;28;20033;-67
2023/04/26 03:51:33;;;;;;;0.20;0.20;;;;;;;12.30;87.89;99589.53;5056363;28;20053;-65
2023/04/26 03:54:02;;;;;;;0.20;0.20;;;;;;;12.25;87.44;99596.31;5038801;28;20036;-65
2023/04/26 03:56:30;;;;;;;0.20;0.20;;;;;;;12.14;88.17;99591.81;5038754;28;20106;-67
2023/04/26 03:58:56;;;;;;;0.20;0.20;;;;;;;12.14;87.68;99601.00;5038743;28;20032;-67
2023/04/26 04:01:24;;;;;;;0.20;0.20;;;;;;;12.11;88.40;99600.97;5039056;28;20036;-65
2023/04/26 04:03:55;;;;;;;0.20;0.20;;;;;;;12.11;88.62;99615.72;5056511;28;20040;-66
2023/04/26 04:06:21;;;;;;;0.20;0.20;;;;;;;12.02;89.27;99610.47;5038833;28;20029;-67
2023/04/26 04:08:51;;;;;;;0.20;0.20;;;;;;;12.03;89.05;99606.50;5038837;28;20486;-67
2023/04/26 04:11:17;;;;;;;0.20;0.20;;;;;;;12.08;88.74;99616.47;5039267;28;20435;-67
2023/04/26 04:13:45;;;;;;;0.20;0.20;;;;;;;12.07;88.15;99612.09;5038469;28;20112;-64
2023/04/26 04:16:12;;;;;;;0.30;0.30;;;;;;;12.11;88.05;99621.31;5038402;28;20033;-65
2023/04/26 04:18:42;;;;;;;0.20;0.20;;;;;;;11.96;87.81;99628.75;5038620;28;20033;-67
2023/04/26 04:21:11;;;;;;;0.20;0.20;;;;;;;11.95;88.22;99627.16;5038184;28;20029;-65
2023/04/26 04:23:42;;;;;;;0.20;0.20;;;;;;;11.89;88.46;99634.28;5038254;28;20483;-66
2023/04/26 04:26:12;;;;;;;0.20;0.20;;;;;;;11.98;86.79;99645.88;5038351;28;20037;-67
2023/04/26 04:28:40;;;;;;;0.20;0.20;;;;;;;11.91;85.88;99645.03;5038741;28;20035;-66
2023/04/26 04:31:08;;;;;;;0.20;0.20;;;;;;;11.87;86.55;99649.75;5038283;28;20029;-65
2023/04/26 04:33:34;;;;;;;0.20;0.20;;;;;;;12.03;84.38;99653.88;5056282;28;20021;-65
2023/04/26 04:36:05;;;;;;;0.20;0.20;;;;;;;12.92;76.38;99652.88;5038827;28;20341;-68
2023/04/26 04:38:30;;;;;;;0.20;0.20;;;;;;;13.81;71.03;99653.19;5038225;28;20029;-64
2023/04/26 04:40:56;;;;;;;0.20;0.20;;;;;;;14.57;68.38;99657.59;5038086;28;20190;-67
2023/04/26 04:43:22;;;;;;;0.20;0.20;;;;;;;15.23;63.64;99651.38;5038132;28;20087;-66
2023/04/26 04:45:51;;;;;;;0.20;0.20;;;;;;;15.81;60.22;99655.50;5037772;28;20475;-66
2023/04/26 04:48:20;;;;;;;0.20;0.20;;;;;;;16.41;57.21;99673.91;5037718;28;20032;-66
2023/04/26 04:50:49;;;;;;;0.20;0.20;;;;;;;16.92;53.80;99677.81;5037460;28;20066;-65
2023/04/26 04:53:15;;;;;;;0.20;0.20;;;;;;;17.41;50.69;99678.44;5037345;28;20048;-67
2023/04/26 04:55:43;;;;;;;0.20;0.20;;;;;;;17.98;50.33;99683.28;5037523;28;20030;-67
2023/04/26 04:58:08;;;;;;;0.20;0.20;;;;;;;18.43;47.39;99682.97;5038207;28;20465;-68
2023/04/26 05:00:36;;;;;;;0.20;0.20;;;;;;;18.86;45.74;99697.16;5037671;28;20029;-64
2023/04/26 05:03:04;;;;;;;0.20;0.20;;;;;;;19.35;44.82;99706.66;5037921;28;20029;-65
2023/04/26 05:05:35;;;;;;;0.20;0.20;;;;;;;19.77;43.14;99715.47;5037548;28;20036;-65
2023/04/26 05:08:06;;;;;;;0.20;0.20;;;;;;;20.06;42.37;99714.81;5037258;28;20029;-65
2023/04/26 05:10:33;;;;;;;0.20;0.20;;;;;;;20.32;40.54;99730.72;5037104;28;20112;-66
2023/04/26 05:13:02;;;;;;;0.20;0.20;;;;;;;20.64;40.16;99732.00;5037120;28;20021;-64
2023/04/26 05:15:32;;;;;;;0.20;0.20;;;;;;;20.67;40.07;99719.81;5037339;28;20048;-65
2023/04/26 05:18:01;;;;;;;0.20;0.20;;;;;;;21.25;39.57;99738.84;5037278;28;20025;-66
2023/04/26 05:20:29;;;;;;;0.20;0.20;;;;;;;21.21;38.16;99738.97;5036882;28;20037;-65
2023/04/26 05:22:58;;;;;;;0.20;0.20;;;;;;;21.56;37.65;99745.69;5037474;28;20029;-64
2023/04/26 05:25:29;;;;;;;0.20;0.20;;;;;;;21.55;37.99;99748.97;5037458;28;20029;-65
2023/04/26 05:27:54;;;;;;;0.20;0.20;;;;;;;21.92;36.73;99756.75;5036828;28;20053;-65
2023/04/26 05:30:22;;;;;;;0.20;0.20;;;;;;;22.40;36.62;99752.03;5037061;28;20068;-65
2023/04/26 05:32:49;;;;;;;0.20;0.20;;;;;;;22.49;35.86;99755.00;5037571;28;20349;-65
2023/04/26 05:35:17;;;;;;;0.20;0.20;;;;;;;22.65;35.82;99750.44;5036960;28;20123;-64
2023/04/26 05:37:43;;;;;;;0.20;0.20;;;;;;;22.40;33.87;99757.72;5036593;28;20067;-64
2023/04/26 05:40:11;;;;;;;0.20;0.20;;;;;;;22.71;34.49;99754.28;5036537;28;20033;-65
2023/04/26 05:42:36;;;;;;;0.10;0.10;;;;;;;22.31;33.89;99754.75;5037155;28;20407;-64
2023/04/26 05:45:04;;;;;;;0.20;0.20;;;;;;;22.58;32.29;99770.50;5036639;28;20037;-63
2023/04/26 05:47:30;;;;;;;0.20;0.20;;;;;;;23.00;31.80;99771.13;5037199;28;20422;-64
2023/04/26 05:49:58;;;;;;;0.20;0.20;;;;;;;22.80;31.39;99768.56;5036658;28;20037;-65
2023/04/26 05:52:28;;;;;;;0.20;0.20;;;;;;;23.00;31.20;99776.81;5035981;28;20492;-65
2023/04/26 05:54:53;;;;;;;0.20;0.20;;;;;;;23.08;30.12;99771.69;5054200;28;20028;-64
2023/04/26 05:57:19;;;;;;;0.20;0.20;;;;;;;23.26;29.33;99780.38;5036098;28;20386;-65
2023/04/26 05:59:45;;;;;;;0.20;0.20;;;;;;;23.55;28.96;99780.16;5036740;28;20032;-63
2023/04/26 06:02:13;;;;;;;0.20;0.20;;;;;;;23.43;28.96;99781.75;5035771;28;20083;-65
2023/04/26 06:04:38;;;;;;;0.20;0.20;;;;;;;23.34;29.16;99781.72;5036095;28;20040;-63
2023/04/26 06:07:04;;;;;;;0.20;0.20;;;;;;;23.49;28.32;99784.84;5036545;28;20033;-64
2023/04/26 06:09:32;;;;;;;0.20;0.20;;;;;;;23.00;29.03;99788.94;5036593;28;20452;-66
2023/04/26 06:11:58;;;;;;;0.20;0.20;;;;;;;23.41;28.70;99795.63;5035891;28;20517;-64
2023/04/26 06:14:28;;;;;;;0.20;0.20;;;;;;;23.58;28.73;99792.63;5035852;28;20036;-65
2023/04/26 06:16:55;;;;;;;0.20;0.20;;;;;;;23.90;28.37;99797.91;5035833;28;20111;-66
2023/04/26 06:19:23;;;;;;;0.20;0.20;;;;;;;24.20;27.74;99804.09;5035771;28;20025;-64
2023/04/26 06:21:55;;;;;;;0.20;0.20;;;;;;;23.83;26.99;99801.03;5035615;28;20033;-64
2023/04/26 06:24:24;;;;;;;0.10;0.10;;;;;;;23.25;27.92;99810.00;5054133;28;20017;-65
2023/04/26 06:26:53;;;;;;;0.20;0.20;;;;;;;23.55;27.56;99816.28;5036316;28;20061;-63
2023/04/26 06:29:20;;;;;;;0.20;0.20;;;;;;;22.82;27.95;99822.78;5035713;28;20024;-63
2023/04/26 06:31:50;;;;;;;0.20;0.20;;;;;;;23.38;27.80;99822.09;5054163;28;20071;-64
2023/04/26 06:34:21;;;;;;;0.20;0.20;;;;;;;23.75;27.24;99811.06;5035754;28;20479;-63
2023/04/26 06:36:47;;;;;;;0.13;0.13;;;;;;;23.47;27.09;99822.19;5035881;28;20441;-66
2023/04/26 06:39:12;;;;;;;0.20;0.20;;;;;;;23.84;26.36;99816.81;5035597;28;20108;-64
2023/04/26 06:41:37;;;;;;;0.20;0.20;;;;;;;24.12;26.16;99820.63;5036061;28;20040;-65
2023/04/26 06:44:08;;;;;;;0.20;0.20;;;;;;;23.19;26.57;99820.34;5035553;28;20025;-64
2023/04/26 06:46:33;;;;;;;0.20;0.20;;;;;;;23.59;26.31;99834.75;5035224;28;20139;-64
2023/04/26 06:49:02;;;;;;;0.20;0.20;;;;;;;22.02;27.90;99828.50;5035488;28;20072;-66
2023/04/26 06:51:31;;;;;;;0.20;0.20;;;;;;;21.29;29.54;99827.28;5053494;28;20045;-67
2023/04/26 06:53:57;;;;;;;0.20;0.20;;;;;;;20.22;29.75;99829.84;5036346;28;20044;-66
2023/04/26 06:56:26;;;;;;;0.20;0.20;;;;;;;19.96;30.06;99828.78;5037032;28;20513;-67
2023/04/26 06:59:03;;;;;;;0.20;0.20;;;;;;;20.51;29.91;99833.66;5035682;28;20036;-66
2023/04/26 07:01:32;;;;;;;0.20;0.20;;;;;;;21.10;30.13;99826.16;5053592;28;20111;-66
2023/04/26 07:04:02;;;;;;;0.20;0.20;;;;;;;20.65;30.04;99835.34;5036243;28;20329;-63
2023/04/26 07:06:28;;;;;;;0.20;0.20;;;;;;;19.89;30.96;99819.25;5035528;28;20059;-64
2023/04/26 07:08:59;;;;;;;0.20;0.20;;;;;;;20.24;31.19;99831.00;5036671;28;20041;-65
2023/04/26 07:11:28;;;;;;;0.20;0.20;;;;;;;19.04;32.72;99810.38;5036118;28;20025;-66
2023/04/26 07:13:58;;;;;;;0.20;0.20;;;;;;;19.65;31.89;99817.72;5035573;28;20033;-65
2023/04/26 07:16:25;;;;;;;0.20;0.20;;;;;;;19.98;31.30;99815.84;5039103;28;20033;-65
2023/04/26 07:18:56;;;;;;;0.20;0.20;;;;;;;20.18;31.38;99818.63;5039378;28;20029;-65
2023/04/26 07:21:25;;;;;;;0.20;0.20;;;;;;;20.15;31.33;99813.84;5057920;28;20029;-66
2023/04/26 07:23:56;;;;;;;0.20;0.20;;;;;;;19.33;32.13;99810.66;5057492;28;20021;-67
2023/04/26 07:26:23;;;;;;;0.20;0.20;;;;;;;19.79;31.91;99791.22;5039428;28;20035;-67
2023/04/26 07:28:52;;;;;;;0.20;0.20;;;;;;;21.16;30.43;99810.25;5038948;28;20025;-67
2023/04/26 07:31:22;;;;;;;0.20;0.20;;;;;;;21.28;29.39;99814.38;5039064;28;20029;-66
2023/04/26 07:33:48;;;;;;;0.13;0.13;;;;;;;21.22;29.44;99797.16;5039515;28;20028;-66
2023/04/26 07:36:16;;;;;;;0.20;0.20;;;;;;;21.32;29.66;99815.09;5040069;28;20483;-66
2023/04/26 07:38:42;;;;;;;0.20;0.20;;;;;;;21.41;29.84;99813.22;5038895;28;20029;-67
2023/04/26 07:41:12;;;;;;;0.20;0.20;;;;;;;21.89;29.54;99813.50;5038629;28;20035;-66
2023/04/26 07:43:43;;;;;;;0.20;0.20;;;;;;;21.88;29.91;99824.03;5056705;28;20052;-68
2023/04/26 07:46:11;;;;;;;0.20;0.20;;;;;;;21.84;30.01;99822.53;5039194;28;20029;-67
2023/04/26 07:48:36;;;;;;;0.20;0.20;;;;;;;22.26;28.58;99829.00;5056353;28;20083;-65
2023/04/26 07:51:12;;;;;;;0.20;0.20;;;;;;;22.26;28.53;99826.16;5039112;28;20041;-64
2023/04/26 07:53:39;;;;;;;0.10;0.10;;;;;;;22.78;27.93;99824.94;5056871;28;20044;-65
2023/04/26 07:56:09;;;;;;;0.20;0.20;;;;;;;22.20;29.53;99813.81;5038587;28;20416;-66
2023/04/26 07:58:38;;;;;;;0.20;0.20;;;;;;;22.74;28.51;99821.41;5038875;28;20025;-65
2023/04/26 08:01:07;;;;;;;0.20;0.20;;;;;;;22.79;29.02;99828.56;5039014;28;20045;-66
2023/04/26 08:03:35;;;;;;;0.20;0.20;;;;;;;22.40;29.18;99830.59;5038684;28;20025;-66
2023/04/26 08:06:01;;;;;;;0.20;0.20;;;;;;;23.02;28.88;99831.06;5056286;28;20055;-66
2023/04/26 08:08:26;;;;;;;0.20;0.20;;;;;;;23.73;27.56;99825.75;5038362;28;20033;-65
2023/04/26 08:10:53;;;;;;;0.10;0.10;;;;;;;24.33;27.29;99818.22;5038209;28;20040;-65
2023/04/26 08:13:21;;;;;;;0.20;0.20;;;;;;;23.92;26.29;99840.09;5038187;28;20029;-66
2023/04/26 08:15:47;;;;;;;0.20;0.20;;;;;;;22.85;26.98;99838.91;5038595;28;20029;-65
2023/04/26 08:18:13;;;;;;;0.20;0.20;;;;;;;23.20;26.93;99847.47;5038442;28;20113;-65
2023/04/26 08:20:39;;;;;;;0.10;0.10;;;;;;;23.85;26.96;99841.13;5037993;28;20467;-64
2023/04/26 08:23:07;;;;;;;0.20;0.20;;;;;;;24.30;26.91;99843.50;5038236;28;20039;-65
2023/04/26 08:25:35;;;;;;;0.20;0.20;;;;;;;25.17;25.18;99841.66;5037431;28;20036;-65
2023/04/26 08:28:03;;;;;;;0.10;0.10;;;;;;;25.98;23.82;99847.06;5037991;28;20029;-64
2023/04/26 08:30:29;;;;;;;0.20;0.20;;;;;;;25.51;25.00;99848.31;5037908;28;20029;-65
2023/04/26 08:32:57;;;;;;;0.20;0.20;;;;;;;25.82;23.35;99854.69;5038301;28;20071;-66
2023/04/26 08:35:25;;;;;;;0.20;0.20;;;;;;;25.45;23.96;99853.84;5037521;28;20035;-65
2023/04/26 08:37:50;;;;;;;0.17;0.17;;;;;;;26.31;23.69;99861.41;5038031;28;20151;-65
2023/04/26 08:40:21;;;;;;;0.20;0.20;;;;;;;26.12;22.72;99869.22;5037617;28;20492;-65
2023/04/26 08:42:51;;;;;;;0.20;0.20;;;;;;;25.69;23.51;99865.44;5037893;28;20504;-65
2023/04/26 08:45:20;;;;;;;0.10;0.10;;;;;;;25.65;23.81;99866.84;5038180;28;20447;-65
2023/04/26 08:47:51;;;;;;;0.10;0.10;;;;;;;25.68;23.96;99863.84;5037537;28;20029;-65
2023/04/26 08:50:22;;;;;;;0.20;0.20;;;;;;;26.45;23.36;99860.78;5038272;28;20040;-66
2023/04/26 08:52:53;;;;;;;0.10;0.10;;;;;;;26.59;23.57;99862.97;5037213;28;20049;-65
2023/04/26 08:55:20;;;;;;;0.20;0.20;;;;;;;26.79;22.79;99870.97;5037416;28;20036;-64
2023/04/26 08:57:47;;;;;;;0.20;0.20;;;;;;;26.49;22.64;99866.31;5037776;28;20039;-65
2023/04/26 09:00:14;;;;;;;0.10;0.10;;;;;;;26.48;23.11;99868.41;5038070;28;20056;-66
2023/04/26 09:02:51;;;;;;;0.20;0.20;;;;;;;26.79;22.49;99881.56;5037657;28;20033;-66
2023/04/26 09:05:17;;;;;;;0.20;0.20;;;;;;;26.97;22.57;99870.09;5037305;28;20037;-66
2023/04/26 09:07:46;;;;;;;0.20;0.20;;;;;;;27.31;22.26;99876.56;5037528;28;20114;-66
2023/04/26 09:10:18;;;;;;;0.10;0.10;;;;;;;27.18;22.23;99884.59;5037169;28;20058;-64
2023/04/26 09:12:43;;;;;;;0.20;0.20;;;;;;;26.86;22.03;99878.38;5055296;28;20033;-66
2023/04/26 09:15:13;;;;;;;0.20;0.20;;;;;;;26.50;22.86;99870.75;5036987;28;20025;-64
2023/04/26 09:17:41;;;;;;;0.20;0.20;;;;;;;27.26;22.01;99877.25;5037231;28;20357;-65
2023/04/26 09:20:28;;;;;;;0.15;0.15;;;;;;;26.73;22.58;99860.69;5036901;28;20044;-66
2023/04/26 09:23:05;;;;;;;0.17;0.17;;;;;;;26.44;23.47;99862.06;5054739;28;20047;-65
2023/04/26 09:25:34;;;;;;;0.20;0.20;;;;;;;26.03;23.46;99878.56;5036761;28;20116;-65
2023/04/26 09:28:02;;;;;;;0.10;0.10;;;;;;;25.92;23.93;99888.88;5037294;28;20035;-66
2023/04/26 09:30:36;;;;;;;0.20;0.20;;;;;;;25.79;23.83;99881.28;5036768;28;20483;-65
2023/04/26 09:33:08;;;;;;;0.15;0.15;;;;;;;26.13;23.91;99888.69;5036701;28;20119;-65
2023/04/26 09:35:46;;;;;;;0.20;0.20;;;;;;;26.30;23.40;99876.94;5036715;28;20033;-66
2023/04/26 09:38:14;;;;;;;0.10;0.10;;;;;;;25.97;23.88;99886.19;5035762;28;20036;-64
2023/04/26 09:40:41;;;;;;;0.10;0.10;;;;;;;26.52;22.61;99883.25;5037148;28;20048;-63
2023/04/26 09:43:15;;;;;;;0.10;0.10;;;;;;;26.16;22.66;99883.34;5037013;28;20501;-65
2023/04/26 09:45:44;;;;;;;0.10;0.10;;;;;;;26.91;22.50;99886.28;5036414;28;20597;-66
2023/04/26 09:48:20;;;;;;;0.10;0.10;;;;;;;27.53;21.97;99888.47;5036688;28;20542;-65
2023/04/26 09:50:47;;;;;;;0.10;0.10;;;;;;;27.65;21.89;99890.31;5036738;28;20400;-64
2023/04/26 09:53:35;;;;;;;0.10;0.10;;;;;;;27.67;21.76;99892.69;5053901;28;20053;-64
2023/04/26 09:56:17;;;;;;;0.10;0.10;;;;;;;27.91;21.87;99858.34;5052953;28;20036;-64
2023/04/26 09:58:45;;;;;;;0.13;0.13;;;;;;;28.11;21.82;99892.78;5054353;28;20464;-66
2023/04/26 10:01:16;;;;;;;0.10;0.10;;;;;;;28.55;21.32;99891.25;5036555;28;20472;-65
2023/04/26 10:03:42;;;;;;;0.10;0.10;;;;;;;26.56;21.62;99881.03;5036078;28;20475;-64
2023/04/26 10:06:08;;;;;;;0.10;0.10;;;;;;;27.06;22.15;99887.19;5036574;28;20032;-65
2023/04/26 10:08:35;;;;;;;0.10;0.10;;;;;;;27.07;22.92;99873.72;5036213;28;20106;-65
2023/04/26 10:11:03;;;;;;;0.10;0.10;;;;;;;27.53;23.05;99882.75;5036231;28;20025;-64
2023/04/26 10:13:31;;;;;;;0.20;0.20;;;;;;;25.92;23.10;99872.56;5036068;28;20040;-65
2023/04/26 10:15:57;;;;;;;0.20;0.20;;;;;;;26.36;23.20;99877.88;5036474;28;20094;-66
2023/04/26 10:18:25;;;;;;;0.15;0.15;;;;;;;26.01;22.72;99858.31;5035839;28;20124;-66
2023/04/26 10:20:55;;;;;;;0.20;0.20;;;;;;;26.51;22.54;99873.13;5036017;28;20499;-66
2023/04/26 10:23:26;;;;;;;0.10;0.10;;;;;;;26.38;22.88;99881.06;5036107;28;20029;-65
2023/04/26 10:25:58;;;;;;;0.10;0.10;;;;;;;25.26;24.15;99875.84;5035751;28;20036;-66
2023/04/26 10:28:48;;;;;;;0.10;0.10;;;;;;;23.42;25.99;99878.75;5035645;28;20463;-66
2023/04/26 10:31:16;;;;;;;0.20;0.20;;;;;;;22.96;26.92;99876.25;5035773;28;20035;-66
2023/04/26 10:34:02;;;;;;;0.20;0.20;;;;;;;22.19;27.98;99875.34;5036277;28;20067;-65
2023/04/26 10:36:27;;;;;;;0.20;0.20;;;;;;;22.57;27.61;99870.97;5034919;28;20029;-65
2023/04/26 10:39:16;;;;;;;0.20;0.20;;;;;;;22.59;27.26;99857.97;5035871;28;20124;-63
2023/04/26 10:41:44;;;;;;;0.20;0.20;;;;;;;21.78;28.29;99864.75;5026026;28;20044;-65
2023/04/26 10:44:39;;;;;;;0.20;0.20;;;;;;;22.26;28.27;99860.16;5035463;28;20029;-65
2023/04/26 10:47:06;;;;;;;0.20;0.20;;;;;;;22.00;29.04;99859.31;5035466;28;20134;-66
2023/04/26 10:49:45;;;;;;;0.20;0.20;;;;;;;21.30;29.74;99857.97;5035564;28;20442;-64
2023/04/26 10:52:20;;;;;;;0.20;0.20;;;;;;;21.09;30.37;99859.31;5053034;28;20394;-63
2023/04/26 10:54:59;;;;;;;0.20;0.20;;;;;;;20.18;31.54;99846.84;5035552;28;20051;-68
2023/04/26 10:57:46;;;;;;;0.20;0.20;;;;;;;20.17;31.58;99853.75;5036393;28;20071;-65
2023/04/26 11:00:26;;;;;;;0.20;0.20;;;;;;;20.83;30.56;99849.84;5036108;28;20064;-65
2023/04/26 11:02:51;;;;;;;0.20;0.20;;;;;;;21.26;30.40;99845.94;5053495;28;20059;-63
2023/04/26 11:05:32;;;;;;;0.20;0.20;;;;;;;21.25;30.08;99850.00;5035905;28;20462;-64
2023/04/26 11:08:03;;;;;;;0.20;0.20;;;;;;;20.76;30.58;99858.50;5035945;28;20036;-65
2023/04/26 11:10:29;;;;;;;0.20;0.20;;;;;;;20.54;30.65;99852.53;5035370;28;20494;-66
2023/04/26 11:13:02;;;;;;;0.20;0.20;;;;;;;20.81;30.61;99854.34;5035299;28;20128;-66
2023/04/26 11:15:30;;;;;;;0.20;0.20;;;;;;;20.30;31.18;99859.53;5035278;28;20021;-67
2023/04/26 11:18:01;;;;;;;0.20;0.20;;;;;;;20.95;30.42;99844.72;5035949;28;20064;-67
2023/04/26 11:20:29;;;;;;;0.20;0.20;;;;;;;21.29;30.01;99822.41;5053117;28;20025;-64
2023/04/26 11:22:55;;;;;;;0.20;0.20;;;;;;;21.20;30.53;99859.03;5035822;28;20048;-66
2023/04/26 11:25:20;;;;;;;0.20;0.20;;;;;;;20.93;30.40;99843.16;5035238;28;20474;-65
2023/04/26 11:27:48;;;;;;;0.20;0.20;;;;;;;20.79;30.97;99857.63;5035435;28;20052;-64
2023/04/26 11:30:22;;;;;;;0.20;0.20;;;;;;;20.39;31.09;99857.69;5053492;28;20029;-66
2023/04/26 11:32:50;;;;;;;0.20;0.20;;;;;;;20.35;30.81;99853.38;5035235;28;20094;-66
2023/04/26 11:35:16;;;;;;;0.20;0.20;;;;;;;20.86;29.96;99848.16;5035042;28;20032;-64
2023/04/26 11:37:44;;;;;;;0.20;0.20;;;;;;;21.63;29.33;99840.94;5035019;28;20041;-66